createdAt,value
2019-06-10T00:00:16.259Z,99.90
2019-06-10T00:02:59.782Z,99.90
2019-06-10T00:05:41.804Z,99.90
2019-06-10T00:08:24.001Z,99.90
2019-06-10T00:10:54.680Z,99.90
2019-06-10T00:13:26.670Z,99.90
2019-06-10T00:15:56.970Z,99.90
2019-06-10T00:18:38.381Z,99.90
2019-06-10T00:21:01.955Z,99.90
2019-06-10T00:23:31.996Z,99.90
2019-06-10T00:26:06.103Z,99.90
2019-06-10T00:28:35.547Z,99.90
2019-06-10T00:31:06.902Z,99.90
2019-06-10T00:33:43.688Z,99.90
2019-06-10T00:36:14.127Z,99.90
2019-06-10T00:38:44.290Z,99.90
2019-06-10T00:41:14.845Z,99.90
2019-06-10T00:43:45.147Z,99.90
2019-06-10T00:46:15.223Z,99.90
2019-06-10T00:48:47.893Z,99.90
2019-06-10T00:51:18.159Z,99.90
2019-06-10T00:53:51.150Z,99.90
2019-06-10T00:56:21.536Z,99.90
2019-06-10T00:58:52.097Z,99.90
2019-06-10T01:01:22.452Z,99.90
2019-06-10T01:03:53.095Z,99.90
2019-06-10T01:06:23.562Z,99.90
2019-06-10T01:08:54.096Z,99.90
2019-06-10T01:11:27.182Z,99.90
2019-06-10T01:13:56.591Z,99.90
2019-06-10T01:16:27.069Z,99.90
2019-06-10T01:18:57.739Z,99.90
2019-06-10T01:21:31.814Z,99.90
2019-06-10T01:24:02.886Z,99.90
2019-06-10T01:26:33.378Z,99.90
2019-06-10T01:29:03.451Z,99.90
2019-06-10T01:31:33.675Z,99.90
2019-06-10T01:34:05.444Z,99.90
2019-06-10T01:36:35.838Z,99.90
2019-06-10T01:39:07.551Z,99.90
2019-06-10T01:41:37.921Z,99.90
2019-06-10T01:44:08.551Z,99.90
2019-06-10T01:46:41.047Z,99.90
2019-06-10T01:49:13.223Z,99.90
2019-06-10T01:51:43.945Z,99.90
2019-06-10T01:54:15.576Z,99.90
2019-06-10T01:56:46.139Z,99.90
2019-06-10T01:59:16.977Z,99.90
2019-06-10T02:02:03.424Z,99.90
2019-06-10T02:04:33.702Z,99.90
2019-06-10T02:07:04.147Z,99.90
2019-06-10T02:09:35.233Z,99.90
2019-06-10T02:12:09.311Z,99.90
2019-06-10T02:14:41.628Z,99.90
2019-06-10T02:17:17.302Z,99.90
2019-06-10T02:19:47.593Z,99.90
2019-06-10T02:22:35.101Z,99.90
2019-06-10T02:25:14.003Z,99.90
2019-06-10T02:27:50.781Z,99.90
2019-06-10T02:30:44.286Z,99.90
2019-06-10T02:33:03.770Z,99.90
2019-06-10T02:36:03.972Z,99.90
2019-06-10T02:38:39.593Z,99.90
2019-06-10T02:41:09.272Z,99.90
2019-06-10T02:43:43.817Z,99.90
2019-06-10T02:46:13.640Z,99.90
2019-06-10T02:48:44.802Z,99.90
2019-06-10T02:51:17.673Z,99.90
2019-06-10T02:53:47.294Z,99.90
2019-06-10T02:56:19.443Z,99.90
2019-06-10T02:58:49.349Z,99.90
2019-06-10T03:01:21.963Z,99.90
2019-06-10T03:03:54.374Z,99.90
2019-06-10T03:06:31.873Z,99.90
2019-06-10T03:08:55.792Z,99.90
2019-06-10T03:11:28.091Z,99.90
2019-06-10T03:13:57.781Z,99.90
2019-06-10T03:16:35.860Z,99.90
2019-06-10T03:19:06.668Z,99.90
2019-06-10T03:21:38.128Z,99.90
2019-06-10T03:24:08.591Z,99.90
2019-06-10T03:26:39.323Z,99.90
2019-06-10T03:29:09.546Z,99.90
2019-06-10T03:31:43.149Z,99.90
2019-06-10T03:34:14.706Z,99.90
2019-06-10T03:36:43.838Z,99.90
2019-06-10T03:39:13.967Z,99.90
2019-06-10T03:41:44.169Z,99.90
2019-06-10T03:44:15.074Z,99.90
2019-06-10T03:46:45.507Z,99.90
2019-06-10T03:49:17.054Z,99.90
2019-06-10T03:51:47.997Z,99.90
2019-06-10T03:54:19.246Z,99.90
2019-06-10T03:56:51.950Z,99.90
2019-06-10T03:59:24.663Z,99.90
2019-06-10T04:01:57.282Z,99.90
2019-06-10T04:04:28.363Z,99.90
2019-06-10T04:06:58.616Z,99.90
2019-06-10T04:09:29.288Z,99.90
2019-06-10T04:12:01.921Z,99.90
2019-06-10T04:14:34.686Z,99.90
2019-06-10T04:17:05.438Z,99.90
2019-06-10T04:19:36.158Z,99.90
2019-06-10T04:22:06.616Z,99.90
2019-06-10T04:24:36.956Z,99.90
2019-06-10T04:27:07.179Z,99.90
2019-06-10T04:29:38.178Z,99.90
2019-06-10T04:32:09.041Z,99.90
2019-06-10T04:34:39.317Z,99.90
2019-06-10T04:37:12.334Z,99.90
2019-06-10T04:39:42.747Z,99.90
2019-06-10T04:42:13.040Z,99.90
2019-06-10T04:44:43.450Z,99.90
2019-06-10T04:47:13.739Z,99.90
2019-06-10T04:49:44.523Z,99.90
2019-06-10T04:52:14.662Z,99.90
2019-06-10T04:54:44.848Z,99.90
2019-06-10T04:57:15.137Z,99.90
2019-06-10T04:59:45.727Z,99.90
2019-06-10T05:02:16.211Z,99.90
2019-06-10T05:04:46.608Z,99.90
2019-06-10T05:07:16.970Z,99.90
2019-06-10T05:09:47.355Z,99.90
2019-06-10T05:12:19.223Z,99.90
2019-06-10T05:14:49.407Z,99.90
2019-06-10T05:17:21.492Z,99.90
2019-06-10T05:19:54.733Z,99.90
2019-06-10T05:22:28.504Z,99.90
2019-06-10T05:24:59.233Z,99.90
2019-06-10T05:27:30.840Z,99.90
2019-06-10T05:30:02.421Z,99.90
2019-06-10T05:32:33.561Z,99.90
2019-06-10T05:35:04.673Z,99.90
2019-06-10T05:37:35.631Z,99.90
2019-06-10T05:40:07.007Z,99.90
2019-06-10T05:42:37.099Z,99.90
2019-06-10T05:45:09.040Z,99.90
2019-06-10T05:47:39.642Z,99.90
2019-06-10T05:50:12.759Z,99.90
2019-06-10T05:52:42.716Z,99.90
2019-06-10T05:55:13.023Z,99.90
2019-06-10T05:57:43.573Z,99.90
2019-06-10T06:00:14.977Z,99.90
2019-06-10T06:02:45.728Z,99.90
2019-06-10T06:05:16.436Z,99.90
2019-06-10T06:08:01.286Z,99.90
2019-06-10T06:10:22.126Z,99.90
2019-06-10T06:12:52.643Z,99.90
2019-06-10T06:15:23.921Z,99.90
2019-06-10T06:18:06.528Z,99.90
2019-06-10T06:20:34.086Z,99.90
2019-06-10T06:23:03.893Z,99.90
2019-06-10T06:25:39.782Z,99.90
2019-06-10T06:28:07.871Z,99.90
2019-06-10T06:30:38.877Z,99.90
2019-06-10T06:33:10.375Z,99.90
2019-06-10T06:35:43.678Z,99.90
2019-06-10T06:38:13.128Z,99.90
2019-06-10T06:40:43.594Z,99.90
2019-06-10T06:43:13.806Z,99.90
2019-06-10T06:45:48.627Z,99.90
2019-06-10T06:48:18.786Z,99.90
2019-06-10T06:51:01.862Z,99.90
2019-06-10T06:53:32.426Z,99.90
2019-06-10T06:55:55.982Z,99.90
2019-06-10T06:58:33.471Z,99.90
2019-06-10T07:01:10.556Z,99.90
2019-06-10T07:03:38.588Z,99.90
2019-06-10T07:06:13.189Z,99.90
2019-06-10T07:09:03.358Z,99.90
2019-06-10T07:11:27.459Z,99.90
2019-06-10T07:13:59.011Z,99.90
2019-06-10T07:16:34.516Z,99.90
2019-06-10T07:19:13.205Z,99.90
2019-06-10T07:22:02.736Z,99.90
2019-06-10T07:24:24.111Z,99.90
2019-06-10T07:26:57.516Z,99.90
2019-06-10T07:29:32.819Z,99.90
2019-06-10T07:32:05.867Z,99.90
2019-06-10T07:34:37.119Z,99.90
2019-06-10T07:37:08.286Z,99.90
2019-06-10T07:39:39.608Z,99.90
2019-06-10T07:42:13.483Z,99.90
2019-06-10T07:45:06.181Z,99.90
2019-06-10T07:47:39.113Z,99.90
2019-06-10T07:50:22.715Z,99.90
2019-06-10T07:52:55.828Z,99.90
2019-06-10T07:55:34.680Z,99.90
2019-06-10T07:58:22.296Z,99.90
2019-06-10T08:01:02.606Z,99.90
2019-06-10T08:03:38.288Z,99.90
2019-06-10T08:06:24.336Z,99.90
2019-06-10T08:08:56.684Z,99.90
2019-06-10T08:11:29.632Z,99.90
2019-06-10T08:14:06.448Z,99.90
2019-06-10T08:16:44.238Z,99.90
2019-06-10T08:19:30.253Z,99.90
2019-06-10T08:21:49.546Z,99.90
2019-06-10T08:24:23.454Z,99.90
2019-06-10T08:26:59.062Z,99.90
2019-06-10T08:29:29.801Z,99.90
2019-06-10T08:32:07.336Z,99.90
2019-06-10T08:34:47.915Z,99.90
2019-06-10T08:37:33.260Z,99.90
2019-06-10T08:40:16.919Z,99.90
2019-06-10T08:42:55.529Z,99.90
2019-06-10T08:45:26.684Z,99.90
2019-06-10T08:47:57.457Z,99.90
2019-06-10T08:50:33.637Z,99.90
2019-06-10T08:53:14.640Z,99.90
2019-06-10T08:55:46.625Z,99.90
2019-06-10T08:58:51.627Z,99.90
2019-06-10T09:01:33.392Z,99.90
2019-06-10T09:04:18.343Z,99.90
2019-06-10T09:06:55.493Z,99.90
2019-06-10T09:09:36.153Z,99.90
2019-06-10T09:12:33.293Z,99.90
2019-06-10T09:15:14.193Z,99.90
2019-06-10T09:18:23.220Z,99.90
2019-06-10T09:21:12.708Z,99.90
2019-06-10T09:24:08.510Z,99.90
2019-06-10T09:26:50.170Z,99.90
2019-06-10T09:29:25.782Z,99.90
2019-06-10T09:32:03.705Z,99.90
2019-06-10T09:34:43.069Z,99.90
2019-06-10T09:37:26.547Z,99.90
2019-06-10T09:39:59.566Z,99.90
2019-06-10T09:42:33.303Z,99.90
2019-06-10T09:45:19.356Z,99.90
2019-06-10T09:48:12.993Z,99.90
2019-06-10T09:50:50.962Z,99.90
2019-06-10T09:53:30.164Z,99.90
2019-06-10T09:55:55.412Z,99.90
2019-06-10T09:58:32.682Z,99.90
2019-06-10T10:01:19.307Z,99.90
2019-06-10T10:04:00.747Z,99.90
2019-06-10T10:06:38.136Z,99.90
2019-06-10T10:09:33.651Z,99.90
2019-06-10T10:12:12.246Z,99.90
2019-06-10T10:14:56.253Z,99.90
2019-06-10T10:17:26.368Z,99.90
2019-06-10T10:20:07.473Z,99.90
2019-06-10T10:22:55.368Z,99.90
2019-06-10T10:25:26.588Z,99.90
2019-06-10T10:28:03.560Z,99.90
2019-06-10T10:30:52.721Z,99.90
2019-06-10T10:33:29.021Z,99.90
2019-06-10T10:36:29.332Z,99.90
2019-06-10T10:43:34.267Z,99.90
2019-06-10T10:49:42.838Z,99.90
2019-06-10T10:52:13.788Z,99.90
2019-06-10T10:54:45.067Z,99.90
2019-06-10T10:57:16.356Z,99.90
2019-06-10T10:59:49.506Z,99.90
2019-06-10T11:02:32.057Z,99.90
2019-06-10T11:05:12.871Z,99.90
2019-06-10T11:07:49.842Z,99.90
2019-06-10T11:14:33.544Z,99.90
2019-06-10T11:17:05.234Z,99.90
2019-06-10T11:23:25.396Z,99.90
2019-06-10T11:26:12.487Z,99.90
2019-06-10T11:31:53.659Z,99.90
2019-06-10T11:35:23.499Z,99.90
2019-06-10T11:38:03.294Z,99.90
2019-06-10T11:40:58.539Z,99.90
2019-06-10T11:43:46.761Z,99.90
2019-06-10T11:46:27.442Z,99.90
2019-06-10T11:48:59.309Z,99.90
2019-06-10T11:51:47.627Z,99.90
2019-06-10T11:54:23.420Z,99.80
2019-06-10T11:57:08.269Z,96.30
2019-06-10T11:59:43.468Z,97.30
2019-06-10T12:02:27.425Z,96.70
2019-06-10T12:05:04.126Z,96.20
2019-06-10T12:07:37.699Z,95.50
2019-06-10T12:10:33.072Z,95.40
2019-06-10T12:13:09.934Z,94.50
2019-06-10T12:16:25.568Z,93.70
2019-06-10T12:18:28.735Z,92.70
2019-06-10T12:24:42.985Z,93.30
2019-06-10T12:27:14.445Z,92.60
2019-06-10T12:29:45.278Z,93.40
2019-06-10T12:32:17.281Z,93.10
2019-06-10T12:38:32.532Z,93.90
2019-06-10T12:41:14.069Z,92.50
2019-06-10T12:43:48.759Z,92.20
2019-06-10T12:47:22.775Z,92.40
2019-06-10T12:49:56.191Z,92.10
2019-06-10T12:56:11.302Z,92.00
2019-06-10T12:59:47.653Z,91.70
2019-06-10T13:02:32.204Z,91.50
2019-06-10T13:05:59.576Z,92.70
2019-06-10T13:08:53.114Z,92.10
2019-06-10T13:11:27.762Z,91.30
2019-06-10T13:17:44.155Z,91.40
2019-06-10T13:21:22.824Z,91.20
2019-06-10T13:23:54.165Z,91.70
2019-06-10T13:27:15.880Z,90.70
2019-06-10T13:33:28.342Z,88.20
2019-06-10T13:36:26.249Z,89.70
2019-06-10T13:38:59.147Z,90.30
2019-06-10T13:41:43.862Z,89.90
2019-06-10T13:44:40.053Z,90.50
2019-06-10T13:47:26.636Z,89.20
2019-06-10T13:50:45.340Z,89.90
2019-06-10T13:53:18.618Z,90.60
2019-06-10T13:56:27.077Z,90.50
2019-06-10T13:59:27.440Z,91.00
2019-06-10T14:02:28.835Z,90.80
2019-06-10T14:05:08.294Z,91.20
2019-06-10T14:08:15.306Z,90.10
2019-06-10T14:11:33.893Z,90.40
2019-06-10T14:14:05.814Z,90.20
2019-06-10T14:17:32.910Z,90.20
2019-06-10T14:20:03.804Z,89.50
2019-06-10T14:26:17.323Z,90.60
2019-06-10T14:28:53.223Z,90.30
2019-06-10T14:35:09.593Z,91.30
2019-06-10T14:41:23.086Z,92.00
2019-06-10T14:44:00.513Z,92.40
2019-06-10T14:47:39.539Z,92.40
2019-06-10T14:50:14.328Z,92.90
2019-06-10T14:53:03.425Z,94.70
2019-06-10T14:55:53.546Z,95.10
2019-06-10T14:58:25.022Z,95.40
2019-06-10T15:01:09.154Z,95.30
2019-06-10T15:03:54.265Z,96.10
2019-06-10T15:06:48.623Z,95.20
2019-06-10T15:09:23.920Z,95.10
2019-06-10T15:12:24.367Z,94.90
2019-06-10T15:15:04.733Z,95.20
2019-06-10T15:24:02.984Z,96.90
2019-06-10T15:27:19.246Z,96.70
2019-06-10T15:29:53.335Z,96.70
2019-06-10T15:32:43.548Z,97.20
2019-06-10T15:36:02.141Z,96.80
2019-06-10T15:39:05.293Z,97.40
2019-06-10T15:41:42.861Z,98.10
2019-06-10T15:45:02.297Z,96.50
2019-06-10T15:52:15.518Z,96.70
2019-06-10T15:56:08.938Z,97.30
2019-06-10T15:58:42.930Z,96.50
2019-06-10T16:01:22.482Z,96.00
2019-06-10T16:07:32.578Z,96.10
2019-06-10T16:10:29.449Z,96.00
2019-06-10T16:13:24.933Z,96.10
2019-06-10T16:19:53.321Z,96.40
2019-06-10T16:26:39.100Z,97.70
2019-06-10T16:29:12.135Z,98.40
2019-06-10T16:35:32.141Z,99.90
2019-06-10T16:38:12.594Z,99.90
2019-06-10T16:40:53.913Z,99.70
2019-06-10T16:43:34.418Z,99.90
2019-06-10T16:46:42.911Z,99.90
2019-06-10T16:49:56.941Z,97.00
2019-06-10T16:52:34.255Z,94.70
2019-06-10T16:58:45.528Z,92.40
2019-06-10T17:01:42.752Z,93.00
2019-06-10T17:04:25.418Z,94.30
2019-06-10T17:07:02.264Z,94.30
2019-06-10T17:13:04.838Z,95.40
2019-06-10T17:15:38.625Z,95.70
2019-06-10T17:18:24.907Z,96.40
2019-06-10T17:21:16.993Z,96.70
2019-06-10T17:23:52.478Z,97.80
2019-06-10T17:26:33.251Z,99.80
2019-06-10T17:29:03.430Z,99.90
2019-06-10T17:31:43.318Z,99.90
2019-06-10T17:37:54.675Z,99.90
2019-06-10T17:45:10.086Z,99.90
2019-06-10T17:47:48.763Z,99.90
2019-06-10T17:50:21.897Z,99.90
2019-06-10T17:52:54.880Z,99.90
2019-06-10T17:55:26.548Z,99.90
2019-06-10T17:57:57.962Z,99.90
2019-06-10T18:00:29.388Z,99.90
2019-06-10T18:03:03.695Z,99.90
2019-06-10T18:05:33.706Z,99.90
2019-06-10T18:08:04.837Z,99.90
2019-06-10T18:10:44.220Z,99.90
2019-06-10T18:13:16.870Z,99.90
2019-06-10T18:15:47.932Z,99.90
2019-06-10T18:18:19.172Z,99.90
2019-06-10T18:20:53.301Z,99.90
2019-06-10T18:23:24.922Z,99.90
2019-06-10T18:25:56.320Z,99.90
2019-06-10T18:28:27.283Z,99.90
2019-06-10T18:31:01.066Z,99.90
2019-06-10T18:33:34.614Z,99.90
2019-06-10T18:36:06.397Z,99.90
2019-06-10T18:38:37.371Z,99.90
2019-06-10T18:41:08.295Z,99.90
2019-06-10T18:43:40.058Z,99.90
2019-06-10T18:46:12.705Z,99.90
2019-06-10T18:48:43.572Z,99.90
2019-06-10T18:51:16.183Z,99.90
2019-06-10T18:53:47.441Z,99.90
2019-06-10T18:56:17.878Z,99.90
2019-06-10T18:58:48.843Z,99.90
2019-06-10T19:01:22.519Z,99.90
2019-06-10T19:03:53.446Z,99.90
2019-06-10T19:06:27.157Z,99.90
2019-06-10T19:08:58.276Z,99.90
2019-06-10T19:11:50.699Z,99.90
2019-06-10T19:14:23.671Z,99.90
2019-06-10T19:16:54.823Z,99.90
2019-06-10T19:19:29.826Z,99.90
2019-06-10T19:22:08.966Z,99.90
2019-06-10T19:24:40.172Z,99.90
2019-06-10T19:27:13.733Z,99.90
2019-06-10T19:29:50.803Z,99.90
2019-06-10T19:32:17.542Z,99.90
2019-06-10T19:35:08.724Z,99.90
2019-06-10T19:37:48.963Z,99.90
2019-06-10T19:40:26.443Z,99.90
2019-06-10T19:42:58.319Z,99.90
2019-06-10T19:45:32.485Z,99.90
2019-06-10T19:48:03.712Z,99.90
2019-06-10T19:50:36.385Z,99.90
2019-06-10T19:53:08.617Z,99.90
2019-06-10T19:55:41.621Z,99.90
2019-06-10T19:58:13.386Z,99.90
2019-06-10T20:00:50.885Z,99.90
2019-06-10T20:03:17.606Z,99.90
2019-06-10T20:05:48.867Z,99.90
2019-06-10T20:08:22.535Z,99.90
2019-06-10T20:10:56.837Z,99.90
2019-06-10T20:13:27.354Z,99.90
2019-06-10T20:16:03.358Z,99.90
2019-06-10T20:18:34.111Z,99.90
2019-06-10T20:21:06.052Z,99.90
2019-06-10T20:23:37.401Z,99.90
2019-06-10T20:26:08.774Z,99.90
2019-06-10T20:28:41.283Z,99.90
2019-06-10T20:31:12.732Z,99.90
2019-06-10T20:33:43.892Z,99.90
2019-06-10T20:36:21.890Z,99.90
2019-06-10T20:38:48.799Z,99.90
2019-06-10T20:41:19.380Z,99.90
2019-06-10T20:43:55.504Z,99.90
2019-06-10T20:46:26.451Z,99.90
2019-06-10T20:48:57.263Z,99.90
2019-06-10T20:51:28.517Z,99.90
2019-06-10T20:54:02.684Z,99.90
2019-06-10T20:56:33.772Z,99.90
2019-06-10T20:59:04.782Z,99.90
2019-06-10T21:01:35.391Z,99.90
2019-06-10T21:04:06.282Z,99.90
2019-06-10T21:06:39.228Z,99.90
2019-06-10T21:09:13.151Z,99.90
2019-06-10T21:11:46.390Z,99.90
2019-06-10T21:14:15.405Z,99.90
2019-06-10T21:16:46.452Z,99.90
2019-06-10T21:19:16.887Z,99.90
2019-06-10T21:21:49.539Z,99.90
2019-06-10T21:24:19.891Z,99.90
2019-06-10T21:26:54.287Z,99.90
2019-06-10T21:29:22.725Z,99.90
2019-06-10T21:31:54.773Z,99.90
2019-06-10T21:34:26.118Z,99.90
2019-06-10T21:36:56.592Z,99.90
2019-06-10T21:39:27.098Z,99.90
2019-06-10T21:41:58.078Z,99.90
2019-06-10T21:44:28.421Z,99.90
2019-06-10T21:46:58.668Z,99.90
2019-06-10T21:49:29.450Z,99.90
2019-06-10T21:51:59.849Z,99.90
2019-06-10T21:54:30.152Z,99.90
2019-06-10T21:57:02.648Z,99.90
2019-06-10T21:59:32.615Z,99.90
2019-06-10T22:02:07.864Z,99.90
2019-06-10T22:04:38.311Z,99.90
2019-06-10T22:07:32.912Z,99.90
2019-06-10T22:10:12.774Z,99.90
2019-06-10T22:12:50.772Z,99.90
2019-06-10T22:15:22.577Z,99.90
2019-06-10T22:17:54.794Z,99.90
2019-06-10T22:20:32.454Z,99.90
2019-06-10T22:23:28.447Z,99.90
2019-06-10T22:26:04.882Z,99.90
2019-06-10T22:28:39.034Z,99.90
2019-06-10T22:31:19.826Z,99.90
2019-06-10T22:33:55.968Z,99.90
2019-06-10T22:36:32.674Z,99.90
2019-06-10T22:39:13.681Z,99.90
2019-06-10T22:41:53.719Z,99.90
2019-06-10T22:44:33.243Z,99.90
2019-06-10T22:47:03.806Z,99.90
2019-06-10T22:49:43.204Z,99.90
2019-06-10T22:52:26.255Z,99.90
2019-06-10T22:54:58.364Z,99.90
2019-06-10T22:57:38.737Z,99.90
2019-06-10T23:00:13.081Z,99.90
2019-06-10T23:02:43.874Z,99.90
2019-06-10T23:05:17.237Z,99.90
2019-06-10T23:07:48.187Z,99.90
2019-06-10T23:10:25.686Z,99.90
2019-06-10T23:13:02.952Z,99.90
2019-06-10T23:15:32.640Z,99.90
2019-06-10T23:18:03.451Z,99.90
2019-06-10T23:23:26.068Z,99.90
2019-06-10T23:25:56.314Z,99.90
2019-06-10T23:28:26.710Z,99.90
2019-06-10T23:30:58.871Z,99.90
2019-06-10T23:33:29.338Z,99.90
2019-06-10T23:36:09.168Z,99.90
2019-06-10T23:38:48.897Z,99.90
2019-06-10T23:41:22.158Z,99.90
2019-06-10T23:43:52.910Z,99.90
2019-06-10T23:46:23.901Z,99.90
2019-06-10T23:48:55.372Z,99.90
2019-06-10T23:51:26.056Z,99.90
2019-06-10T23:53:58.372Z,99.90
2019-06-10T23:56:28.246Z,99.90
2019-06-10T23:58:58.863Z,99.90
